Terminal Aerodrome Forecast
Issued by NWS

Home | Current Version | Previous Version | Text Only | Print | Product List | Glossary On
Versions: 1 2 3 4 5 6 7 8 9 10 11 12 13 14 15 16 17 18 19 20 21
000
FTUS44 KMAF 281200 AAA
TAFHOB
TAF AMD
KHOB 281201Z 2812/0112 10005KT 3SM BR OVC003
      TEMPO 2812/2816 2SM -FZDZ BR
     FM281800 13009KT P6SM OVC011
     FM282200 13008KT P6SM SCT250
     FM010300 VRB03KT 6SM BR OVC002=

USA.gov is the U.S. government's official web portal to all federal, state and local government web resources and services.